Time;durP1;ratioP1;P1;durP2;ratioP2;P2;SDS_P1;SDS_P2;PMS_P1;PMS_P2;Temp;Humidity;BMP_temperature;BMP_pressure;BME280_temperature;BME280_humidity;BME280_pressure;Samples;Min_cycle;Max_cycle;Signal;HPM_P1;HPM_P2
2023/01/16 00:00:13;;;;;;;;;;;14.40;85.90;;;;;;4192729;28;19930;-61
2023/01/16 00:02:55;;;;;;;;;;;14.40;86.20;;;;;;4189178;28;19943;-61
2023/01/16 00:05:36;;;;;;;;;;;14.50;86.70;;;;;;4175947;28;19927;-62
2023/01/16 00:08:16;;;;;;;;;;;14.50;86.30;;;;;;4175916;28;19935;-61
2023/01/16 00:10:57;;;;;;;;;;;14.70;86.20;;;;;;4193410;28;19927;-61
2023/01/16 00:13:37;;;;;;;;;;;14.70;85.70;;;;;;4193192;28;20398;-62
2023/01/16 00:16:20;;;;;;;;;;;14.80;85.60;;;;;;4193326;28;19966;-62
2023/01/16 00:19:02;;;;;;;;;;;14.80;85.30;;;;;;4176430;28;19932;-60
2023/01/16 00:21:44;;;;;;;;;;;14.90;85.00;;;;;;4176640;28;19927;-62
2023/01/16 00:24:24;;;;;;;;;;;14.90;84.90;;;;;;4191299;28;20058;-62
2023/01/16 00:27:05;;;;;;;;;;;14.90;84.60;;;;;;4192009;28;20005;-62
2023/01/16 00:29:46;;;;;;;;;;;15.00;84.50;;;;;;4191731;28;20321;-62
2023/01/16 00:32:27;;;;;;;;;;;15.00;85.30;;;;;;4193007;28;20675;-62
2023/01/16 00:35:09;;;;;;;;;;;15.00;84.60;;;;;;4193133;28;20256;-62
2023/01/16 00:37:49;;;;;;;;;;;15.00;84.50;;;;;;4193108;28;19932;-62
2023/01/16 00:40:30;;;;;;;;;;;15.10;84.40;;;;;;4193230;28;19930;-62
2023/01/16 00:43:11;;;;;;;;;;;15.10;84.10;;;;;;4192747;28;20057;-62
2023/01/16 00:45:51;;;;;;;;;;;15.20;84.00;;;;;;4176147;28;20002;-61
2023/01/16 00:48:32;;;;;;;;;;;15.20;83.80;;;;;;4175580;28;19943;-61
2023/01/16 00:51:14;;;;;;;;;;;15.20;83.50;;;;;;4177492;28;19982;-61
2023/01/16 00:53:54;;;;;;;;;;;15.30;83.60;;;;;;4192533;28;19927;-61
2023/01/16 00:56:35;;;;;;;;;;;15.30;83.50;;;;;;4191501;28;19947;-62
2023/01/16 00:59:16;;;;;;;;;;;15.30;84.30;;;;;;4192507;28;19969;-61
2023/01/16 01:01:56;;;;;;;;;;;15.30;83.40;;;;;;4192850;28;19927;-61
2023/01/16 01:04:37;;;;;;;;;;;15.40;83.50;;;;;;4192929;28;19928;-62
2023/01/16 01:07:19;;;;;;;;;;;15.40;83.50;;;;;;4193015;28;19927;-61
2023/01/16 01:10:00;;;;;;;;;;;15.30;83.40;;;;;;4192613;28;19927;-61
2023/01/16 01:12:41;;;;;;;;;;;15.40;83.50;;;;;;4193015;28;19932;-62
2023/01/16 01:15:21;;;;;;;;;;;15.40;83.50;;;;;;4176788;28;19928;-63
2023/01/16 01:18:02;;;;;;;;;;;15.40;84.40;;;;;;4178576;28;20406;-62
2023/01/16 01:20:55;;;;;;;;;;;15.40;83.50;;;;;;4178452;28;20387;-63
2023/01/16 01:23:37;;;;;;;;;;;15.40;83.50;;;;;;4194527;28;20758;-62
2023/01/16 01:26:18;;;;;;;;;;;15.40;83.50;;;;;;4195599;28;19927;-62
2023/01/16 01:28:59;;;;;;;;;;;15.30;83.40;;;;;;4195013;28;19931;-66
2023/01/16 01:31:39;;;;;;;;;;;15.40;83.60;;;;;;4178372;28;19928;-65
2023/01/16 01:34:20;;;;;;;;;;;15.30;83.60;;;;;;4195048;28;19930;-66
2023/01/16 01:37:01;;;;;;;;;;;15.40;84.50;;;;;;4195081;28;20005;-66
2023/01/16 01:39:43;;;;;;;;;;;15.40;83.50;;;;;;4194496;28;19931;-65
2023/01/16 01:45:28;;;;;;;;;;;15.50;84.30;;;;;;4161761;28;20009;-65
2023/01/16 01:48:17;;;;;;;;;;;15.50;83.20;;;;;;4162101;28;19932;-66
2023/01/16 01:50:59;;;;;;;;;;;15.50;83.00;;;;;;4163297;28;19928;-65
2023/01/16 01:53:42;;;;;;;;;;;15.60;82.70;;;;;;4168682;28;19932;-66
2023/01/16 01:56:29;;;;;;;;;;;15.60;82.60;;;;;;4178251;28;20066;-66
2023/01/16 01:59:13;;;;;;;;;;;15.60;82.50;;;;;;4161783;28;19932;-66
2023/01/16 02:01:54;;;;;;;;;;;15.60;82.60;;;;;;4178485;28;19947;-66
2023/01/16 02:04:37;;;;;;;;;;;15.60;82.70;;;;;;4189330;28;20050;-66
2023/01/16 02:07:18;;;;;;;;;;;15.60;82.70;;;;;;4194367;28;19927;-66
2023/01/16 02:10:03;;;;;;;;;;;15.50;82.70;;;;;;4195432;28;19998;-66
2023/01/16 02:12:45;;;;;;;;;;;15.50;82.70;;;;;;4194964;28;19969;-66
2023/01/16 02:15:26;;;;;;;;;;;15.50;82.70;;;;;;4178174;28;19931;-65
2023/01/16 02:21:18;;;;;;;;;;;15.50;82.80;;;;;;4181755;28;19932;-65
2023/01/16 02:24:15;;;;;;;;;;;15.50;82.90;;;;;;4194988;28;24472;-65
2023/01/16 02:27:04;;;;;;;;;;;15.40;83.00;;;;;;4194053;28;19931;-66
2023/01/16 02:29:58;;;;;;;;;;;15.40;83.20;;;;;;4194925;28;19928;-66
2023/01/16 02:32:43;;;;;;;;;;;15.40;83.30;;;;;;4191471;28;20306;-65
2023/01/16 02:35:42;;;;;;;;;;;15.40;83.20;;;;;;4193710;28;19932;-66
2023/01/16 02:38:26;;;;;;;;;;;15.50;83.10;;;;;;4193442;28;19931;-66
2023/01/16 02:41:11;;;;;;;;;;;15.50;83.10;;;;;;4194181;28;19927;-68
2023/01/16 02:43:56;;;;;;;;;;;15.50;83.10;;;;;;4177469;28;19931;-65
2023/01/16 02:46:42;;;;;;;;;;;15.50;82.90;;;;;;4194845;28;19973;-66
2023/01/16 02:49:28;;;;;;;;;;;15.60;82.60;;;;;;4194763;28;20398;-66
2023/01/16 02:52:13;;;;;;;;;;;15.60;82.20;;;;;;4177827;28;19931;-66
2023/01/16 02:54:58;;;;;;;;;;;15.70;82.20;;;;;;4194448;28;19935;-66
2023/01/16 02:57:41;;;;;;;;;;;15.70;82.20;;;;;;4194217;28;19927;-65
2023/01/16 03:00:22;;;;;;;;;;;15.70;82.90;;;;;;4194662;28;19927;-66
2023/01/16 03:03:03;;;;;;;;;;;15.70;81.80;;;;;;4194232;28;19927;-66
2023/01/16 03:05:48;;;;;;;;;;;15.80;81.70;;;;;;4194050;28;20035;-66
2023/01/16 03:08:36;;;;;;;;;;;15.70;82.60;;;;;;4194126;28;19927;-66
2023/01/16 03:11:22;;;;;;;;;;;15.70;81.70;;;;;;4194381;28;19935;-66
2023/01/16 03:14:06;;;;;;;;;;;15.70;81.70;;;;;;4193962;28;19940;-66
2023/01/16 03:16:52;;;;;;;;;;;15.70;81.70;;;;;;4193979;28;20390;-66
2023/01/16 03:19:42;;;;;;;;;;;15.70;81.70;;;;;;4193929;28;19978;-66
2023/01/16 03:22:25;;;;;;;;;;;15.70;82.90;;;;;;4194229;28;19935;-66
2023/01/16 03:25:14;;;;;;;;;;;15.70;81.90;;;;;;4194189;28;19927;-66
2023/01/16 03:27:57;;;;;;;;;;;15.70;81.80;;;;;;4194130;28;19927;-66
2023/01/16 03:30:43;;;;;;;;;;;15.80;81.70;;;;;;4193774;28;20001;-66
2023/01/16 03:33:29;;;;;;;;;;;15.80;81.70;;;;;;4193832;28;20061;-66
2023/01/16 03:36:11;;;;;;;;;;;15.70;81.70;;;;;;4194059;28;19932;-66
2023/01/16 03:38:55;;;;;;;;;;;15.70;82.00;;;;;;4176003;28;19931;-65
2023/01/16 03:41:38;;;;;;;;;;;15.70;82.20;;;;;;4193639;28;19930;-65
2023/01/16 03:44:24;;;;;;;;;;;15.70;82.10;;;;;;4192525;28;19927;-65
2023/01/16 03:47:06;;;;;;;;;;;15.70;82.00;;;;;;4193478;28;19931;-66
2023/01/16 03:49:48;;;;;;;;;;;15.70;81.90;;;;;;4193600;28;19931;-66
2023/01/16 03:52:32;;;;;;;;;;;15.70;81.90;;;;;;4192597;28;20287;-65
2023/01/16 03:55:16;;;;;;;;;;;15.70;82.00;;;;;;4193266;28;19954;-65
2023/01/16 03:58:00;;;;;;;;;;;15.60;83.00;;;;;;4193177;28;19931;-66
2023/01/16 04:00:47;;;;;;;;;;;15.60;82.40;;;;;;4193563;28;20362;-66
2023/01/16 04:03:30;;;;;;;;;;;15.60;82.40;;;;;;4193286;28;20013;-66
2023/01/16 04:06:13;;;;;;;;;;;15.70;82.30;;;;;;4193553;28;20393;-66
2023/01/16 04:08:55;;;;;;;;;;;15.70;82.20;;;;;;4192206;28;19998;-66
2023/01/16 04:11:39;;;;;;;;;;;15.70;82.20;;;;;;4193102;28;19927;-66
2023/01/16 04:14:21;;;;;;;;;;;15.60;82.10;;;;;;4176782;28;19927;-66
2023/01/16 04:17:03;;;;;;;;;;;15.60;82.30;;;;;;4176390;28;19932;-65
2023/01/16 04:19:44;;;;;;;;;;;15.60;82.50;;;;;;4185606;28;19932;-65
2023/01/16 04:22:25;;;;;;;;;;;15.60;82.50;;;;;;4192260;28;20054;-65
2023/01/16 04:25:09;;;;;;;;;;;15.70;82.30;;;;;;4193280;28;19928;-65
2023/01/16 04:27:51;;;;;;;;;;;15.70;82.10;;;;;;4191817;28;19930;-65
2023/01/16 04:30:31;;;;;;;;;;;15.70;81.90;;;;;;4176383;28;19928;-66
2023/01/16 04:33:12;;;;;;;;;;;15.70;81.80;;;;;;4192718;28;19943;-66
2023/01/16 04:35:52;;;;;;;;;;;15.70;82.00;;;;;;4176610;28;19927;-65
2023/01/16 04:38:33;;;;;;;;;;;15.60;82.10;;;;;;4176345;28;19973;-66
2023/01/16 04:41:35;;;;;;;;;;;15.60;82.30;;;;;;4175129;28;19932;-65
2023/01/16 04:44:16;;;;;;;;;;;15.60;82.20;;;;;;4160031;28;20051;-66
2023/01/16 04:46:56;;;;;;;;;;;15.70;82.00;;;;;;4166647;28;19928;-66
2023/01/16 04:49:37;;;;;;;;;;;15.80;81.80;;;;;;4175487;28;19931;-65
2023/01/16 04:52:17;;;;;;;;;;;15.70;81.70;;;;;;4175468;28;19927;-66
2023/01/16 04:54:58;;;;;;;;;;;15.80;81.80;;;;;;4175470;28;19931;-65
2023/01/16 04:57:39;;;;;;;;;;;15.80;81.90;;;;;;4175001;28;19931;-66
2023/01/16 05:00:22;;;;;;;;;;;15.80;81.70;;;;;;4175598;28;20013;-65
2023/01/16 05:03:03;;;;;;;;;;;15.80;81.50;;;;;;4192809;28;19931;-65
2023/01/16 05:05:44;;;;;;;;;;;15.80;81.40;;;;;;4192795;28;19966;-65
2023/01/16 05:08:27;;;;;;;;;;;15.80;81.30;;;;;;4192836;28;20435;-66
2023/01/16 05:11:08;;;;;;;;;;;15.70;81.40;;;;;;4175571;28;19932;-66
2023/01/16 05:13:49;;;;;;;;;;;15.70;81.70;;;;;;4192109;28;19927;-65
2023/01/16 05:16:31;;;;;;;;;;;15.60;82.00;;;;;;4178340;28;19928;-66
2023/01/16 05:19:12;;;;;;;;;;;15.60;82.10;;;;;;4192405;28;20065;-66
2023/01/16 05:21:52;;;;;;;;;;;15.60;82.10;;;;;;4192502;28;20267;-65
2023/01/16 05:24:34;;;;;;;;;;;15.70;82.00;;;;;;4192408;28;19931;-66
2023/01/16 05:27:15;;;;;;;;;;;15.70;81.90;;;;;;4174256;28;20378;-65
2023/01/16 05:29:55;;;;;;;;;;;15.70;82.00;;;;;;4175655;28;19931;-66
2023/01/16 05:32:37;;;;;;;;;;;15.60;82.00;;;;;;4159246;28;19931;-66
2023/01/16 05:35:19;;;;;;;;;;;15.60;83.10;;;;;;4175293;28;19928;-66
2023/01/16 05:38:00;;;;;;;;;;;15.60;82.30;;;;;;4175360;28;19927;-66
2023/01/16 05:40:40;;;;;;;;;;;15.60;82.20;;;;;;4181756;28;19931;-66
2023/01/16 05:43:21;;;;;;;;;;;15.60;83.00;;;;;;4191418;28;19934;-66
2023/01/16 05:46:02;;;;;;;;;;;15.60;82.10;;;;;;4175316;28;20065;-66
2023/01/16 05:48:45;;;;;;;;;;;15.60;82.10;;;;;;4175100;28;19931;-65
2023/01/16 05:51:26;;;;;;;;;;;15.60;83.20;;;;;;4190517;28;20054;-65
2023/01/16 05:54:10;;;;;;;;;;;15.60;82.30;;;;;;4191574;28;20382;-65
2023/01/16 05:56:50;;;;;;;;;;;15.60;82.40;;;;;;4173093;28;19935;-66
2023/01/16 05:59:31;;;;;;;;;;;15.60;83.10;;;;;;4191974;28;19927;-65
2023/01/16 06:02:12;;;;;;;;;;;15.60;82.10;;;;;;4193085;28;20070;-66
2023/01/16 06:04:55;;;;;;;;;;;15.60;82.10;;;;;;4194847;28;20290;-66
2023/01/16 06:07:36;;;;;;;;;;;15.60;83.00;;;;;;4178151;28;19995;-66
2023/01/16 06:10:16;;;;;;;;;;;15.60;83.00;;;;;;4177716;28;19928;-65
2023/01/16 06:12:57;;;;;;;;;;;15.50;82.30;;;;;;4194968;28;20287;-64
2023/01/16 06:15:37;;;;;;;;;;;15.50;83.30;;;;;;4177743;28;20319;-65
2023/01/16 06:18:18;;;;;;;;;;;15.50;82.50;;;;;;4193973;28;20295;-65
2023/01/16 06:21:00;;;;;;;;;;;15.60;82.50;;;;;;4193728;28;19928;-66
2023/01/16 06:23:40;;;;;;;;;;;15.60;82.40;;;;;;4194959;28;19973;-65
2023/01/16 06:26:21;;;;;;;;;;;15.50;82.30;;;;;;4194573;28;20058;-66
2023/01/16 06:29:02;;;;;;;;;;;15.50;82.30;;;;;;4179714;28;19928;-66
2023/01/16 06:31:44;;;;;;;;;;;15.50;82.40;;;;;;4193714;28;19927;-65
2023/01/16 06:34:25;;;;;;;;;;;15.50;82.50;;;;;;4194026;28;19927;-66
2023/01/16 06:37:07;;;;;;;;;;;15.50;82.50;;;;;;4193714;28;19938;-65
2023/01/16 06:39:48;;;;;;;;;;;15.40;82.60;;;;;;4194735;28;19944;-65
2023/01/16 06:42:29;;;;;;;;;;;15.40;82.80;;;;;;4193548;28;19931;-66
2023/01/16 06:45:10;;;;;;;;;;;15.50;82.90;;;;;;4176916;28;19939;-65
2023/01/16 06:47:54;;;;;;;;;;;15.50;82.80;;;;;;4193817;28;19935;-60
2023/01/16 06:50:34;;;;;;;;;;;15.50;82.70;;;;;;4193555;28;20337;-64
2023/01/16 06:53:17;;;;;;;;;;;15.60;82.90;;;;;;4177458;28;19928;-64
2023/01/16 06:55:57;;;;;;;;;;;15.70;82.60;;;;;;4189922;28;19931;-64
2023/01/16 06:58:38;;;;;;;;;;;15.70;82.10;;;;;;4193675;28;19927;-64
2023/01/16 07:01:19;;;;;;;;;;;15.80;81.80;;;;;;4190998;28;19931;-63
2023/01/16 07:03:59;;;;;;;;;;;15.80;81.40;;;;;;4191330;28;19969;-63
2023/01/16 07:06:42;;;;;;;;;;;15.80;81.20;;;;;;4184383;28;19932;-63
2023/01/16 07:09:28;;;;;;;;;;;15.80;81.00;;;;;;4193151;28;19927;-63
2023/01/16 07:12:08;;;;;;;;;;;15.90;80.60;;;;;;4194171;28;19927;-63
2023/01/16 07:23:48;;;;;;;;;;;15.90;80.20;;;;;;4160351;28;19932;-63
2023/01/16 07:26:31;;;;;;;;;;;15.90;80.40;;;;;;4177238;28;19928;-64
2023/01/16 07:29:11;;;;;;;;;;;15.90;79.50;;;;;;4160507;28;20475;-64
2023/01/16 07:31:52;;;;;;;;;;;15.90;79.00;;;;;;4176949;28;19927;-64
2023/01/16 07:34:34;;;;;;;;;;;16.00;79.70;;;;;;4182110;28;19936;-65
2023/01/16 07:37:15;;;;;;;;;;;16.00;78.70;;;;;;4192414;28;19977;-64
2023/01/16 07:39:55;;;;;;;;;;;15.90;78.60;;;;;;4170136;28;20378;-65
2023/01/16 07:42:37;;;;;;;;;;;15.90;78.70;;;;;;4193077;28;19943;-65
2023/01/16 07:45:18;;;;;;;;;;;15.90;78.60;;;;;;4192925;28;19926;-65
2023/01/16 07:48:00;;;;;;;;;;;16.00;78.40;;;;;;4201769;28;19989;-64
2023/01/16 07:50:40;;;;;;;;;;;16.00;78.20;;;;;;4193862;28;19927;-64
2023/01/16 07:53:22;;;;;;;;;;;16.00;78.10;;;;;;4193440;28;20406;-64
2023/01/16 07:56:03;;;;;;;;;;;16.00;78.10;;;;;;4175430;28;20399;-64
2023/01/16 07:58:46;;;;;;;;;;;16.10;77.80;;;;;;4176394;28;19927;-64
2023/01/16 08:01:26;;;;;;;;;;;16.10;77.50;;;;;;4166200;28;19978;-64
2023/01/16 08:04:07;;;;;;;;;;;16.10;77.20;;;;;;4193455;28;20035;-64
2023/01/16 08:06:48;;;;;;;;;;;16.00;77.30;;;;;;4193553;28;20337;-64
2023/01/16 08:09:28;;;;;;;;;;;16.00;78.40;;;;;;4193403;28;19926;-64
2023/01/16 08:12:09;;;;;;;;;;;15.90;77.80;;;;;;4193462;28;19931;-64
2023/01/16 08:14:51;;;;;;;;;;;15.90;77.90;;;;;;4193116;28;19931;-65
2023/01/16 08:17:31;;;;;;;;;;;15.90;78.00;;;;;;4178730;28;19927;-64
2023/01/16 08:20:13;;;;;;;;;;;15.80;77.90;;;;;;4191109;28;19932;-64
2023/01/16 08:22:55;;;;;;;;;;;15.80;77.90;;;;;;4192071;28;19975;-64
2023/01/16 08:25:35;;;;;;;;;;;15.80;78.90;;;;;;4191816;28;19931;-64
2023/01/16 08:28:16;;;;;;;;;;;15.70;78.00;;;;;;4191731;28;19935;-64
2023/01/16 08:31:03;;;;;;;;;;;15.70;78.10;;;;;;4192257;28;20374;-64
2023/01/16 08:33:45;;;;;;;;;;;15.60;78.30;;;;;;4192839;28;19928;-64
2023/01/16 08:36:25;;;;;;;;;;;15.50;78.40;;;;;;4192990;28;19989;-64
2023/01/16 08:39:06;;;;;;;;;;;15.40;78.60;;;;;;4193270;28;20336;-64
2023/01/16 08:53:41;;;;;;;;;;;15.40;78.90;;;;;;4178573;28;20390;-63
2023/01/16 08:56:22;;;;;;;;;;;15.50;78.80;;;;;;4175246;28;20296;-64
2023/01/16 08:59:03;;;;;;;;;;;15.50;78.50;;;;;;4175236;28;19931;-64
2023/01/16 09:01:44;;;;;;;;;;;15.50;78.10;;;;;;4175564;28;19928;-64
2023/01/16 09:04:26;;;;;;;;;;;15.60;78.10;;;;;;4192317;28;20406;-64
2023/01/16 09:07:07;;;;;;;;;;;15.60;78.00;;;;;;4152716;28;19928;-64
2023/01/16 09:09:47;;;;;;;;;;;15.60;77.60;;;;;;4161913;28;19932;-65
2023/01/16 09:15:27;;;;;;;;;;;15.60;77.50;;;;;;4172186;28;20063;-64
2023/01/16 09:18:07;;;;;;;;;;;15.60;77.40;;;;;;4191218;28;20302;-64
2023/01/16 09:20:50;;;;;;;;;;;15.60;78.00;;;;;;4176785;28;19932;-64
2023/01/16 09:23:30;;;;;;;;;;;15.60;76.80;;;;;;4174472;28;19927;-63
2023/01/16 09:26:11;;;;;;;;;;;15.60;76.40;;;;;;4178525;28;19931;-63
2023/01/16 09:28:52;;;;;;;;;;;15.60;77.20;;;;;;4174830;28;19931;-62
2023/01/16 09:31:33;;;;;;;;;;;15.60;76.30;;;;;;4192588;28;19931;-64
2023/01/16 09:34:13;;;;;;;;;;;15.70;75.60;;;;;;4192374;28;19973;-62
2023/01/16 09:36:55;;;;;;;;;;;15.70;75.30;;;;;;4193017;28;20035;-63
2023/01/16 09:39:36;;;;;;;;;;;15.70;75.90;;;;;;4193392;28;20014;-62
2023/01/16 09:45:28;;;;;;;;;;;15.70;75.00;;;;;;4161850;28;20438;-62
2023/01/16 09:48:13;;;;;;;;;;;15.70;75.10;;;;;;4149789;28;19931;-61
2023/01/16 09:50:55;;;;;;;;;;;15.70;75.30;;;;;;4190967;28;20379;-62
2023/01/16 09:59:39;;;;;;;;;;;15.80;75.40;;;;;;4177682;28;19932;-61
2023/01/16 10:02:21;;;;;;;;;;;15.80;74.00;;;;;;4194290;28;19931;-62
2023/01/16 10:05:04;;;;;;;;;;;15.80;73.80;;;;;;4195158;28;19931;-62
2023/01/16 10:07:52;;;;;;;;;;;15.80;73.90;;;;;;4195262;28;19927;-63
2023/01/16 10:10:37;;;;;;;;;;;15.80;74.00;;;;;;4195133;28;20030;-62
2023/01/16 10:13:27;;;;;;;;;;;15.80;74.20;;;;;;4178100;28;19928;-63
2023/01/16 10:16:12;;;;;;;;;;;15.80;74.00;;;;;;4192478;28;19927;-63
2023/01/16 10:18:57;;;;;;;;;;;15.80;73.70;;;;;;4195338;28;20590;-63
2023/01/16 10:21:47;;;;;;;;;;;15.90;73.60;;;;;;4178343;28;19931;-62
2023/01/16 10:24:34;;;;;;;;;;;15.90;73.30;;;;;;4176311;28;20264;-63
2023/01/16 10:27:19;;;;;;;;;;;15.80;73.30;;;;;;4185450;28;19986;-63
2023/01/16 10:30:02;;;;;;;;;;;15.80;73.40;;;;;;4194942;28;20378;-62
2023/01/16 10:32:46;;;;;;;;;;;15.80;73.70;;;;;;4194932;28;19986;-62
2023/01/16 10:35:30;;;;;;;;;;;15.80;73.60;;;;;;4193442;28;19927;-63
2023/01/16 10:38:26;;;;;;;;;;;15.80;73.40;;;;;;4193247;28;19928;-63
2023/01/16 10:49:25;;;;;;;;;;;15.80;73.30;;;;;;4193582;28;19928;-62
2023/01/16 10:50:16;;;;;;;;;;;15.80;73.40;;;;;;4178035;28;20013;-62
2023/01/16 10:53:11;;;;;;;;;;;15.90;73.40;;;;;;4177809;28;19928;-63
2023/01/16 10:55:52;;;;;;;;;;;15.90;74.10;;;;;;4174628;28;19932;-63
2023/01/16 10:58:35;;;;;;;;;;;15.90;72.80;;;;;;4181550;28;20398;-63
2023/01/16 11:01:18;;;;;;;;;;;15.90;72.70;;;;;;4193543;28;19928;-63
2023/01/16 11:04:01;;;;;;;;;;;15.90;73.60;;;;;;4193746;28;19965;-63
2023/01/16 11:06:43;;;;;;;;;;;15.90;72.80;;;;;;4194006;28;19927;-63
2023/01/16 11:09:24;;;;;;;;;;;15.80;72.90;;;;;;4167572;28;20075;-62
2023/01/16 11:18:30;;;;;;;;;;;15.80;72.50;;;;;;4171085;28;19932;-63
2023/01/16 11:21:16;;;;;;;;;;;15.80;72.80;;;;;;4176339;28;19931;-63
2023/01/16 11:24:01;;;;;;;;;;;15.80;73.40;;;;;;4178588;28;19931;-63
2023/01/16 11:26:51;;;;;;;;;;;15.70;73.70;;;;;;4193095;28;19928;-64
2023/01/16 11:29:37;;;;;;;;;;;15.70;74.10;;;;;;4192417;28;20054;-64
2023/01/16 11:32:24;;;;;;;;;;;15.60;74.40;;;;;;4192285;28;19934;-64
2023/01/16 11:35:12;;;;;;;;;;;15.60;74.50;;;;;;4193688;28;19969;-64
2023/01/16 11:37:53;;;;;;;;;;;15.60;74.50;;;;;;4177411;28;19970;-64
2023/01/16 11:40:38;;;;;;;;;;;15.70;74.40;;;;;;4177468;28;19953;-63
2023/01/16 11:46:26;;;;;;;;;;;15.70;74.40;;;;;;4177044;28;19987;-65
2023/01/16 11:49:15;;;;;;;;;;;15.80;74.30;;;;;;4177461;28;20005;-63
2023/01/16 11:52:02;;;;;;;;;;;15.80;74.00;;;;;;4193004;28;19948;-63
2023/01/16 11:54:43;;;;;;;;;;;15.90;73.70;;;;;;4193356;28;19931;-63
2023/01/16 11:57:33;;;;;;;;;;;15.80;73.70;;;;;;4193410;28;19927;-64
2023/01/16 12:00:23;;;;;;;;;;;15.80;73.90;;;;;;4175596;28;19928;-63
2023/01/16 12:03:31;;;;;;;;;;;15.90;73.70;;;;;;4191912;28;19931;-63
2023/01/16 12:06:18;;;;;;;;;;;15.90;73.40;;;;;;4173600;28;19931;-64
2023/01/16 12:09:18;;;;;;;;;;;16.00;73.10;;;;;;4193638;28;19927;-63
2023/01/16 12:15:19;;;;;;;;;;;16.00;73.20;;;;;;4192651;28;19931;-63
2023/01/16 12:18:04;;;;;;;;;;;15.90;73.40;;;;;;4179236;28;20615;-63
2023/01/16 12:20:52;;;;;;;;;;;15.90;73.30;;;;;;4180478;28;20395;-63
2023/01/16 12:23:45;;;;;;;;;;;16.00;73.10;;;;;;4175771;28;20437;-63
2023/01/16 12:26:43;;;;;;;;;;;16.00;72.90;;;;;;4192271;28;20391;-63
2023/01/16 12:29:29;;;;;;;;;;;16.00;72.60;;;;;;4176669;28;19931;-63
2023/01/16 12:32:20;;;;;;;;;;;16.00;72.60;;;;;;4176608;28;19995;-63
2023/01/16 12:35:15;;;;;;;;;;;16.00;72.50;;;;;;4159541;28;19932;-63
2023/01/16 12:38:04;;;;;;;;;;;16.00;72.50;;;;;;4158930;28;19940;-63
2023/01/16 12:44:07;;;;;;;;;;;15.90;72.60;;;;;;4176406;28;19927;-63
2023/01/16 12:46:56;;;;;;;;;;;16.00;72.60;;;;;;4176189;28;19969;-63
2023/01/16 12:49:42;;;;;;;;;;;16.00;72.30;;;;;;4176400;28;20451;-63
2023/01/16 12:52:40;;;;;;;;;;;16.00;72.30;;;;;;4176515;28;20386;-63
2023/01/16 12:55:28;;;;;;;;;;;16.10;72.20;;;;;;4179080;28;21611;-63
2023/01/16 12:58:24;;;;;;;;;;;16.10;72.20;;;;;;4175566;28;20021;-63
2023/01/16 13:01:09;;;;;;;;;;;16.10;72.30;;;;;;4163518;28;20063;-63
2023/01/16 13:03:53;;;;;;;;;;;16.10;72.30;;;;;;4163391;28;20382;-63
2023/01/16 13:06:40;;;;;;;;;;;16.10;72.40;;;;;;4192991;28;19931;-63
2023/01/16 13:09:25;;;;;;;;;;;16.10;72.30;;;;;;4192738;28;19932;-64
2023/01/16 13:15:11;;;;;;;;;;;16.00;72.60;;;;;;4179866;28;19931;-63
2023/01/16 13:17:57;;;;;;;;;;;16.10;72.50;;;;;;4195748;28;19943;-63
2023/01/16 13:20:38;;;;;;;;;;;16.10;72.50;;;;;;4195482;28;20394;-63
2023/01/16 13:23:22;;;;;;;;;;;16.10;72.40;;;;;;4195679;28;19978;-63
2023/01/16 13:26:04;;;;;;;;;;;16.10;72.40;;;;;;4195679;28;19926;-63
2023/01/16 13:28:48;;;;;;;;;;;16.10;73.20;;;;;;4196178;28;19955;-64
2023/01/16 13:31:32;;;;;;;;;;;16.10;72.40;;;;;;4196029;28;20456;-63
2023/01/16 13:34:16;;;;;;;;;;;16.10;72.60;;;;;;4194980;28;20291;-63
2023/01/16 13:37:10;;;;;;;;;;;16.00;72.80;;;;;;4195584;28;19947;-63
2023/01/16 13:40:00;;;;;;;;;;;15.90;73.80;;;;;;4195636;28;20021;-63
2023/01/16 13:42:43;;;;;;;;;;;16.00;74.10;;;;;;4195726;28;20381;-63
2023/01/16 13:48:29;;;;;;;;;;;16.00;73.20;;;;;;4178503;28;19931;-63
2023/01/16 13:51:14;;;;;;;;;;;15.90;73.50;;;;;;4168630;28;19930;-63
2023/01/16 13:53:57;;;;;;;;;;;15.90;73.60;;;;;;4194500;28;20013;-61
2023/01/16 13:56:40;;;;;;;;;;;15.90;73.70;;;;;;4194111;28;19926;-62
2023/01/16 13:59:30;;;;;;;;;;;15.90;73.70;;;;;;4194346;28;20316;-62
2023/01/16 14:02:25;;;;;;;;;;;16.00;73.50;;;;;;4194510;28;19977;-63
2023/01/16 14:05:24;;;;;;;;;;;16.10;73.20;;;;;;4194187;28;20432;-62
2023/01/16 14:11:30;;;;;;;;;;;16.20;73.30;;;;;;4194700;28;20291;-62
2023/01/16 14:17:21;;;;;;;;;;;16.30;74.00;;;;;;4194372;28;19931;-61
2023/01/16 14:20:02;;;;;;;;;;;16.30;73.10;;;;;;4194534;28;20053;-61
2023/01/16 14:25:42;;;;;;;;;;;16.40;72.90;;;;;;4177386;28;19973;-62
2023/01/16 14:28:26;;;;;;;;;;;16.40;72.90;;;;;;4177528;28;20478;-62
2023/01/16 14:31:19;;;;;;;;;;;16.40;73.00;;;;;;4177613;28;19928;-62
2023/01/16 14:34:02;;;;;;;;;;;16.30;73.10;;;;;;4177585;28;19947;-62
2023/01/16 14:36:44;;;;;;;;;;;16.30;74.20;;;;;;4178101;28;19931;-62
2023/01/16 14:39:30;;;;;;;;;;;16.20;73.60;;;;;;4194293;28;19932;-62
2023/01/16 14:57:33;;;;;;;;;;;16.00;75.10;;;;;;4193731;28;19932;-62
2023/01/16 15:00:18;;;;;;;;;;;16.00;75.20;;;;;;4194446;28;19931;-62
2023/01/16 15:03:01;;;;;;;;;;;16.00;75.20;;;;;;4194513;28;19928;-62
2023/01/16 15:05:53;;;;;;;;;;;16.00;75.30;;;;;;4194559;28;19943;-62
2023/01/16 15:08:35;;;;;;;;;;;15.90;75.60;;;;;;4176845;28;19935;-62
2023/01/16 15:11:34;;;;;;;;;;;15.90;76.00;;;;;;4193188;28;19953;-62
2023/01/16 15:14:33;;;;;;;;;;;15.90;76.40;;;;;;4184805;28;20390;-62
2023/01/16 15:23:22;;;;;;;;;;;15.90;76.50;;;;;;4185812;28;20005;-62
2023/01/16 15:26:13;;;;;;;;;;;15.90;76.60;;;;;;4177118;28;19927;-61
2023/01/16 15:28:59;;;;;;;;;;;16.00;77.30;;;;;;4177331;28;19931;-62
2023/01/16 15:31:42;;;;;;;;;;;16.10;76.00;;;;;;4188510;28;19944;-62
2023/01/16 15:34:24;;;;;;;;;;;16.10;75.60;;;;;;4175836;28;19932;-62
2023/01/16 15:37:14;;;;;;;;;;;16.20;76.30;;;;;;4193488;28;19931;-62
2023/01/16 15:39:56;;;;;;;;;;;16.20;75.30;;;;;;4193834;28;19927;-61
2023/01/16 15:48:39;;;;;;;;;;;16.10;75.30;;;;;;4193397;28;19927;-62
2023/01/16 15:51:21;;;;;;;;;;;16.10;75.20;;;;;;4192487;28;19928;-62
2023/01/16 15:54:02;;;;;;;;;;;16.20;75.20;;;;;;4191945;28;19930;-62
2023/01/16 15:56:44;;;;;;;;;;;16.10;75.10;;;;;;4192503;28;19963;-62
2023/01/16 15:59:36;;;;;;;;;;;16.10;75.40;;;;;;4193447;28;19989;-63
2023/01/16 16:02:18;;;;;;;;;;;16.10;75.50;;;;;;4163949;28;19928;-63
2023/01/16 16:05:00;;;;;;;;;;;16.20;75.30;;;;;;4192543;28;19939;-62
2023/01/16 16:07:40;;;;;;;;;;;16.20;75.10;;;;;;4180463;28;19999;-63
2023/01/16 16:13:19;;;;;;;;;;;16.20;75.00;;;;;;4175022;28;19967;-61
2023/01/16 16:19:01;;;;;;;;;;;16.20;74.90;;;;;;4175330;28;20303;-62
2023/01/16 16:22:47;;;;;;;;;;;16.20;74.80;;;;;;4192306;28;20291;-62
2023/01/16 16:24:46;;;;;;;;;;;16.20;74.80;;;;;;4191687;28;19927;-62
2023/01/16 16:27:26;;;;;;;;;;;16.20;74.80;;;;;;4190991;28;19947;-60
2023/01/16 16:30:16;;;;;;;;;;;16.20;75.00;;;;;;4188692;28;19978;-59
2023/01/16 16:32:57;;;;;;;;;;;16.20;76.20;;;;;;4173900;28;20299;-60
2023/01/16 16:35:37;;;;;;;;;;;16.10;75.60;;;;;;4164195;28;20021;-60
2023/01/16 16:38:22;;;;;;;;;;;16.00;75.80;;;;;;4163909;28;19928;-62
2023/01/16 16:41:18;;;;;;;;;;;15.90;76.20;;;;;;4161655;28;19931;-62
2023/01/16 16:43:59;;;;;;;;;;;15.90;77.50;;;;;;4175277;28;20498;-62
2023/01/16 16:46:41;;;;;;;;;;;15.80;77.00;;;;;;4175546;28;20405;-62
2023/01/16 16:49:29;;;;;;;;;;;16.00;77.10;;;;;;4175941;28;20395;-62
2023/01/16 16:52:40;;;;;;;;;;;16.00;76.50;;;;;;4158917;28;19928;-62
2023/01/16 16:55:29;;;;;;;;;;;16.10;76.20;;;;;;4165877;28;19927;-62
2023/01/16 16:58:14;;;;;;;;;;;16.10;76.00;;;;;;4192485;28;19963;-63
2023/01/16 17:00:55;;;;;;;;;;;16.10;76.20;;;;;;4192680;28;19938;-62
2023/01/16 17:03:37;;;;;;;;;;;16.20;76.00;;;;;;4192889;28;19950;-62
2023/01/16 17:06:19;;;;;;;;;;;16.40;75.40;;;;;;4189487;28;19935;-62
2023/01/16 17:08:59;;;;;;;;;;;16.70;74.40;;;;;;4188486;28;20398;-62
2023/01/16 17:11:40;;;;;;;;;;;17.00;73.10;;;;;;4189474;28;19931;-62
2023/01/16 17:14:21;;;;;;;;;;;17.30;72.10;;;;;;4189917;28;19931;-63
2023/01/16 17:17:01;;;;;;;;;;;17.50;70.90;;;;;;4189136;28;19931;-63
2023/01/16 17:19:45;;;;;;;;;;;17.70;70.80;;;;;;4189179;28;19974;-62
2023/01/16 17:22:25;;;;;;;;;;;17.90;69.30;;;;;;4173374;28;20406;-63
2023/01/16 17:25:09;;;;;;;;;;;18.00;68.90;;;;;;4160739;28;20021;-62
2023/01/16 17:27:51;;;;;;;;;;;18.00;68.90;;;;;;4173142;28;20009;-62
2023/01/16 17:30:32;;;;;;;;;;;18.00;69.00;;;;;;4205952;28;19931;-62
2023/01/16 17:33:15;;;;;;;;;;;18.00;69.00;;;;;;4178696;28;20082;-62
2023/01/16 17:36:09;;;;;;;;;;;18.10;68.90;;;;;;4189961;28;20351;-62
2023/01/16 17:38:49;;;;;;;;;;;18.10;68.90;;;;;;4189718;28;19927;-62
2023/01/16 17:47:36;;;;;;;;;;;18.10;68.70;;;;;;4173207;28;19932;-61